Time;durP1;ratioP1;P1;durP2;ratioP2;P2;SDS_P1;SDS_P2;PMS_P1;PMS_P2;Temp;Humidity;BMP_temperature;BMP_pressure;BME280_temperature;BME280_humidity;BME280_pressure;Samples;Min_cycle;Max_cycle;Signal;HPM_P1;HPM_P2
2021/12/06 00:01:37;;;;;;;120.43;59.90;;;;;;;;;;6227091;28;20525;-88
2021/12/06 00:04:38;;;;;;;116.22;55.97;;;;;;;;;;6234776;28;20328;-88
2021/12/06 00:07:39;;;;;;;125.07;59.08;;;;;;;;;;6237769;28;20022;-88
2021/12/06 00:10:40;;;;;;;117.85;60.00;;;;;;;;;;6236847;28;20458;-88
2021/12/06 00:13:43;;;;;;;115.38;59.65;;;;;;;;;;6237794;28;20320;-88
2021/12/06 00:16:43;;;;;;;114.57;57.97;;;;;;;;;;6228284;28;20516;-88
2021/12/06 00:19:44;;;;;;;120.50;60.97;;;;;;;;;;6232929;28;20014;-88
2021/12/06 00:22:44;;;;;;;115.95;59.75;;;;;;;;;;6237925;28;20097;-88
2021/12/06 00:25:45;;;;;;;116.05;60.33;;;;;;;;;;6244648;28;20018;-88
2021/12/06 00:28:46;;;;;;;110.47;61.05;;;;;;;;;;6238621;28;20075;-88
2021/12/06 00:31:47;;;;;;;118.88;60.50;;;;;;;;;;6237687;28;20851;-88
2021/12/06 00:34:48;;;;;;;105.95;58.10;;;;;;;;;;6238300;28;20021;-88
2021/12/06 00:37:58;;;;;;;107.90;55.70;;;;;;;;;;6246591;28;20028;-88
2021/12/06 00:40:58;;;;;;;113.13;58.83;;;;;;;;;;6233846;28;20491;-88
2021/12/06 00:44:00;;;;;;;109.75;57.10;;;;;;;;;;6238040;28;20055;-87
2021/12/06 00:47:00;;;;;;;107.23;54.73;;;;;;;;;;6235126;28;20596;-88
2021/12/06 00:50:01;;;;;;;128.02;61.05;;;;;;;;;;6233273;28;20289;-88
2021/12/06 00:53:02;;;;;;;112.38;56.95;;;;;;;;;;6239384;28;20026;-88
2021/12/06 00:56:03;;;;;;;114.88;60.03;;;;;;;;;;6233567;28;20067;-88
2021/12/06 00:59:03;;;;;;;120.30;56.43;;;;;;;;;;6235362;28;20018;-88
2021/12/06 01:02:05;;;;;;;109.78;55.08;;;;;;;;;;6238287;28;20009;-88
2021/12/06 01:05:05;;;;;;;112.10;58.40;;;;;;;;;;6235828;28;19994;-88
2021/12/06 01:08:06;;;;;;;113.22;56.53;;;;;;;;;;6236530;28;20363;-88
2021/12/06 01:11:07;;;;;;;109.40;59.10;;;;;;;;;;6236136;28;20124;-88
2021/12/06 01:14:07;;;;;;;123.32;59.83;;;;;;;;;;6238722;28;20041;-88
2021/12/06 01:17:08;;;;;;;107.13;59.08;;;;;;;;;;6230114;28;20482;-88
2021/12/06 01:20:10;;;;;;;115.50;57.63;;;;;;;;;;6240095;28;20030;-88
2021/12/06 01:23:14;;;;;;;111.28;55.40;;;;;;;;;;6239965;28;20060;-88
2021/12/06 01:27:13;;;;;;;115.85;61.80;;;;;;;;;;6241001;28;20068;-88
2021/12/06 01:29:43;;;;;;;111.20;56.72;;;;;;;;;;6238063;28;20030;-88
2021/12/06 01:33:16;;;;;;;115.70;56.45;;;;;;;;;;6238866;28;20021;-88
2021/12/06 01:39:28;;;;;;;121.95;63.47;;;;;;;;;;6230899;28;20033;-88
2021/12/06 01:42:29;;;;;;;132.80;69.93;;;;;;;;;;6246742;28;20079;-88
2021/12/06 01:45:29;;;;;;;125.93;63.13;;;;;;;;;;6234581;28;20505;-88
2021/12/06 01:48:29;;;;;;;118.13;59.78;;;;;;;;;;6228667;28;20022;-88
2021/12/06 01:51:30;;;;;;;138.43;70.20;;;;;;;;;;6229240;28;20054;-88
2021/12/06 01:54:31;;;;;;;131.82;64.72;;;;;;;;;;6239978;28;20026;-88
2021/12/06 01:57:33;;;;;;;115.82;57.42;;;;;;;;;;6233364;28;20056;-88
2021/12/06 02:00:44;;;;;;;114.25;60.05;;;;;;;;;;6240452;28;20116;-88
2021/12/06 02:03:45;;;;;;;93.93;46.53;;;;;;;;;;6226909;28;20017;-88
2021/12/06 02:06:46;;;;;;;118.63;61.53;;;;;;;;;;6225998;28;20090;-88
2021/12/06 02:09:47;;;;;;;99.72;50.85;;;;;;;;;;6238823;28;20112;-88
2021/12/06 02:12:50;;;;;;;109.22;54.03;;;;;;;;;;6241103;28;20018;-88
2021/12/06 02:15:53;;;;;;;105.38;51.97;;;;;;;;;;6235404;28;20507;-88
2021/12/06 02:19:01;;;;;;;107.82;51.70;;;;;;;;;;6233453;28;20139;-88
2021/12/06 02:22:02;;;;;;;107.63;54.88;;;;;;;;;;6241590;28;20481;-88
2021/12/06 02:25:03;;;;;;;99.82;51.97;;;;;;;;;;6238471;28;20041;-88
2021/12/06 02:28:04;;;;;;;105.90;52.30;;;;;;;;;;6233663;28;20113;-88
2021/12/06 02:31:04;;;;;;;92.85;46.22;;;;;;;;;;6240299;28;20017;-88
2021/12/06 02:34:05;;;;;;;85.93;37.97;;;;;;;;;;6237844;28;20425;-88
2021/12/06 02:37:06;;;;;;;92.03;39.88;;;;;;;;;;6234625;28;20105;-88
2021/12/06 02:40:09;;;;;;;82.38;37.50;;;;;;;;;;6232849;28;20014;-88
2021/12/06 02:43:09;;;;;;;91.28;42.55;;;;;;;;;;6240108;28;20048;-88
2021/12/06 02:46:10;;;;;;;77.97;33.55;;;;;;;;;;6226441;28;20412;-88
2021/12/06 02:49:10;;;;;;;83.60;39.97;;;;;;;;;;6233483;28;20046;-88
2021/12/06 02:52:11;;;;;;;80.25;33.60;;;;;;;;;;6235537;28;20502;-88
2021/12/06 02:55:59;;;;;;;75.43;34.83;;;;;;;;;;6241651;28;20040;-88
2021/12/06 03:01:41;;;;;;;82.35;33.00;;;;;;;;;;6235030;28;20026;-88
2021/12/06 03:04:42;;;;;;;71.13;28.67;;;;;;;;;;6227136;28;20100;-88
2021/12/06 03:07:46;;;;;;;82.47;34.65;;;;;;;;;;6233318;28;20024;-88
2021/12/06 03:10:46;;;;;;;63.15;26.27;;;;;;;;;;6231173;28;20051;-88
2021/12/06 03:13:47;;;;;;;75.13;31.45;;;;;;;;;;6238166;28;20013;-88
2021/12/06 03:16:48;;;;;;;61.75;21.05;;;;;;;;;;6232494;28;20093;-88
2021/12/06 03:19:49;;;;;;;68.53;28.48;;;;;;;;;;6232112;28;20083;-88
2021/12/06 03:22:49;;;;;;;73.25;29.92;;;;;;;;;;6243759;28;20014;-88
2021/12/06 03:25:50;;;;;;;71.63;31.80;;;;;;;;;;6231990;28;20306;-88
2021/12/06 03:28:50;;;;;;;63.90;26.17;;;;;;;;;;6242268;28;20068;-88
2021/12/06 03:31:50;;;;;;;66.63;26.00;;;;;;;;;;6229407;28;20021;-88
2021/12/06 03:34:51;;;;;;;58.85;27.15;;;;;;;;;;6248393;28;20068;-88
2021/12/06 03:37:51;;;;;;;55.88;23.10;;;;;;;;;;6228449;28;20006;-88
2021/12/06 03:40:51;;;;;;;53.22;20.52;;;;;;;;;;6237274;28;20021;-88
2021/12/06 03:43:52;;;;;;;60.03;22.80;;;;;;;;;;6233569;28;20014;-88
2021/12/06 03:46:58;;;;;;;46.65;20.33;;;;;;;;;;6239282;28;20414;-88
2021/12/06 03:49:59;;;;;;;41.58;16.13;;;;;;;;;;6228506;28;20041;-88
2021/12/06 03:52:59;;;;;;;40.30;17.13;;;;;;;;;;6248371;28;20017;-88
2021/12/06 03:56:00;;;;;;;33.65;18.40;;;;;;;;;;6242118;28;20029;-88
2021/12/06 03:59:00;;;;;;;40.10;17.08;;;;;;;;;;6246040;28;20044;-88
2021/12/06 04:02:00;;;;;;;36.88;16.23;;;;;;;;;;6243233;28;20551;-88
2021/12/06 04:05:01;;;;;;;29.65;14.38;;;;;;;;;;6250322;28;20010;-88
2021/12/06 04:08:01;;;;;;;38.88;17.35;;;;;;;;;;6232756;28;20013;-88
2021/12/06 04:11:02;;;;;;;30.88;13.88;;;;;;;;;;6245908;28;20010;-88
2021/12/06 04:14:02;;;;;;;33.28;16.70;;;;;;;;;;6244087;28;20026;-88
2021/12/06 04:17:03;;;;;;;32.25;15.80;;;;;;;;;;6242844;28;20478;-88
2021/12/06 04:20:05;;;;;;;29.77;12.90;;;;;;;;;;6238046;28;20018;-88
2021/12/06 04:23:06;;;;;;;36.75;14.65;;;;;;;;;;6240062;28;20067;-88
2021/12/06 04:26:07;;;;;;;30.67;14.90;;;;;;;;;;6240705;28;20041;-88
2021/12/06 04:29:08;;;;;;;31.90;15.27;;;;;;;;;;6239044;28;20029;-88
2021/12/06 04:32:08;;;;;;;24.67;12.30;;;;;;;;;;6240113;28;20017;-88
2021/12/06 04:35:09;;;;;;;29.67;13.07;;;;;;;;;;6234107;28;20405;-88
2021/12/06 04:38:09;;;;;;;26.85;12.63;;;;;;;;;;6229355;28;20028;-88
2021/12/06 04:41:10;;;;;;;28.67;14.48;;;;;;;;;;6255765;28;20048;-88
2021/12/06 04:44:10;;;;;;;33.42;16.90;;;;;;;;;;6238489;28;20022;-88
2021/12/06 04:47:11;;;;;;;33.00;15.32;;;;;;;;;;6234205;28;20014;-88
2021/12/06 04:50:12;;;;;;;35.50;15.68;;;;;;;;;;6241843;28;20506;-88
2021/12/06 04:53:16;;;;;;;33.60;14.65;;;;;;;;;;6236300;28;20383;-88
2021/12/06 04:56:17;;;;;;;31.73;15.68;;;;;;;;;;6245145;28;20120;-88
2021/12/06 04:59:20;;;;;;;33.75;14.23;;;;;;;;;;6237097;28;20018;-88
2021/12/06 05:02:22;;;;;;;29.42;16.20;;;;;;;;;;6242868;28;20010;-88
2021/12/06 05:05:34;;;;;;;44.95;19.92;;;;;;;;;;6236756;28;20060;-88
2021/12/06 05:08:36;;;;;;;30.55;15.00;;;;;;;;;;6238928;28;20378;-88
2021/12/06 05:11:36;;;;;;;;;;;;;;;;;;6243473;28;20028;-88
2021/12/06 05:14:37;;;;;;;27.60;14.77;;;;;;;;;;6235923;28;19909;-88
2021/12/06 05:17:37;;;;;;;24.40;10.63;;;;;;;;;;6250063;28;20075;-88
2021/12/06 05:20:38;;;;;;;29.85;12.55;;;;;;;;;;6229946;28;20018;-88
2021/12/06 05:23:38;;;;;;;31.33;13.10;;;;;;;;;;6233264;28;20022;-88
2021/12/06 05:26:39;;;;;;;30.25;12.80;;;;;;;;;;6234512;28;20563;-88
2021/12/06 05:29:44;;;;;;;22.75;10.90;;;;;;;;;;6234866;28;20014;-88
2021/12/06 05:32:45;;;;;;;20.48;10.15;;;;;;;;;;6228726;28;20033;-87
2021/12/06 05:35:45;;;;;;;26.52;12.13;;;;;;;;;;6252187;28;20014;-88
2021/12/06 05:38:45;;;;;;;27.10;11.43;;;;;;;;;;6232120;28;20430;-89
2021/12/06 05:41:46;;;;;;;31.10;13.57;;;;;;;;;;6243392;28;20392;-88
2021/12/06 05:44:46;;;;;;;24.40;11.10;;;;;;;;;;6237369;28;20017;-88
2021/12/06 05:47:46;;;;;;;24.52;12.70;;;;;;;;;;6239783;28;20164;-88
2021/12/06 05:50:48;;;;;;;22.30;10.63;;;;;;;;;;6235659;28;20110;-88
2021/12/06 05:53:48;;;;;;;24.42;11.07;;;;;;;;;;6240691;28;20079;-88
2021/12/06 05:56:49;;;;;;;23.70;13.40;;;;;;;;;;6239262;28;20022;-88
2021/12/06 05:59:50;;;;;;;30.63;14.65;;;;;;;;;;6233949;28;20017;-88
2021/12/06 06:02:50;;;;;;;26.98;13.95;;;;;;;;;;6236775;28;20028;-88
2021/12/06 06:05:52;;;;;;;29.67;13.43;;;;;;;;;;6236153;28;20023;-88
2021/12/06 06:08:52;;;;;;;27.13;12.10;;;;;;;;;;6235681;28;20218;-88
2021/12/06 06:11:52;;;;;;;28.23;13.63;;;;;;;;;;6237392;28;20041;-88
2021/12/06 06:14:53;;;;;;;26.33;13.70;;;;;;;;;;6243011;28;20455;-88
2021/12/06 06:17:53;;;;;;;31.23;14.55;;;;;;;;;;6241258;28;20136;-88
2021/12/06 06:20:55;;;;;;;31.67;16.67;;;;;;;;;;6246634;28;20018;-89
2021/12/06 06:23:55;;;;;;;35.70;22.20;;;;;;;;;;6239143;28;20473;-88
2021/12/06 06:26:55;;;;;;;42.50;18.67;;;;;;;;;;6231724;28;20253;-88
2021/12/06 06:29:56;;;;;;;40.20;18.40;;;;;;;;;;6232095;28;20021;-88
2021/12/06 06:32:56;;;;;;;27.15;14.23;;;;;;;;;;6237143;28;20342;-89
2021/12/06 06:35:57;;;;;;;25.55;11.68;;;;;;;;;;6231307;28;20033;-88
2021/12/06 06:38:57;;;;;;;30.27;11.80;;;;;;;;;;6233951;28;20037;-88
2021/12/06 06:41:57;;;;;;;20.92;11.07;;;;;;;;;;6230770;28;20078;-89
2021/12/06 06:44:58;;;;;;;30.83;15.30;;;;;;;;;;6231628;28;20010;-88
2021/12/06 06:47:58;;;;;;;31.85;15.38;;;;;;;;;;6232753;28;20030;-88
2021/12/06 06:50:58;;;;;;;26.40;12.77;;;;;;;;;;6229712;28;20422;-88
2021/12/06 06:53:59;;;;;;;26.13;12.48;;;;;;;;;;6245915;28;20018;-89
2021/12/06 06:56:59;;;;;;;29.88;14.15;;;;;;;;;;6236870;28;20026;-88
2021/12/06 06:59:59;;;;;;;27.88;12.10;;;;;;;;;;6233956;28;20437;-88
2021/12/06 07:03:00;;;;;;;31.63;14.70;;;;;;;;;;6242786;28;20016;-88
2021/12/06 07:06:02;;;;;;;28.42;14.15;;;;;;;;;;6234603;28;20021;-88
2021/12/06 07:09:03;;;;;;;28.60;14.55;;;;;;;;;;6235553;28;20037;-88
2021/12/06 07:12:11;;;;;;;29.65;12.75;;;;;;;;;;6237267;28;20494;-88
2021/12/06 07:15:13;;;;;;;33.03;15.15;;;;;;;;;;6244681;28;20032;-88
2021/12/06 07:18:14;;;;;;;27.58;14.52;;;;;;;;;;6238884;28;20034;-88
2021/12/06 07:21:15;;;;;;;27.50;14.38;;;;;;;;;;6236117;28;20021;-88
2021/12/06 07:24:15;;;;;;;33.08;16.00;;;;;;;;;;6242867;28;20491;-88
2021/12/06 07:27:16;;;;;;;34.00;16.73;;;;;;;;;;6238605;28;20013;-88
2021/12/06 07:30:16;;;;;;;33.47;17.52;;;;;;;;;;6243583;28;20069;-88
2021/12/06 07:33:17;;;;;;;36.08;20.40;;;;;;;;;;6243564;28;20022;-88
2021/12/06 07:36:21;;;;;;;39.05;19.95;;;;;;;;;;6236557;28;20021;-88
2021/12/06 07:39:22;;;;;;;35.60;19.25;;;;;;;;;;6237279;28;20034;-89
2021/12/06 07:42:22;;;;;;;29.90;15.98;;;;;;;;;;6237767;28;20061;-88
2021/12/06 07:45:22;;;;;;;40.28;19.48;;;;;;;;;;6246933;28;20025;-88
2021/12/06 07:48:23;;;;;;;46.42;24.40;;;;;;;;;;6240297;28;20025;-88
2021/12/06 07:51:25;;;;;;;46.33;22.20;;;;;;;;;;6243715;28;20049;-89
2021/12/06 07:54:25;;;;;;;50.50;23.48;;;;;;;;;;6239534;28;20453;-88
2021/12/06 07:57:26;;;;;;;53.15;26.38;;;;;;;;;;6238906;28;20106;-88
2021/12/06 08:00:27;;;;;;;46.57;24.73;;;;;;;;;;6241269;28;20049;-88
2021/12/06 08:03:30;;;;;;;52.92;23.98;;;;;;;;;;6235050;28;20010;-88
2021/12/06 08:06:31;;;;;;;45.50;22.20;;;;;;;;;;6239036;28;20022;-89
2021/12/06 08:09:33;;;;;;;43.30;20.48;;;;;;;;;;6247017;28;20739;-89
2021/12/06 08:12:33;;;;;;;47.92;24.45;;;;;;;;;;6232557;28;20057;-88
2021/12/06 08:15:33;;;;;;;43.67;24.15;;;;;;;;;;6237019;28;20036;-89
2021/12/06 08:18:33;;;;;;;53.75;24.08;;;;;;;;;;6232177;28;20466;-88
2021/12/06 08:21:34;;;;;;;51.05;23.40;;;;;;;;;;6235679;28;20056;-89
2021/12/06 08:24:34;;;;;;;53.08;23.25;;;;;;;;;;6238891;28;20020;-88
2021/12/06 08:27:35;;;;;;;49.88;23.13;;;;;;;;;;6232053;28;20034;-88
2021/12/06 08:30:35;;;;;;;57.75;27.05;;;;;;;;;;6241087;28;20033;-88
2021/12/06 08:33:37;;;;;;;51.42;24.85;;;;;;;;;;6243046;28;20030;-88
2021/12/06 08:36:37;;;;;;;60.22;27.10;;;;;;;;;;6235719;28;20040;-88
2021/12/06 08:39:37;;;;;;;54.63;26.83;;;;;;;;;;6236004;28;20017;-88
2021/12/06 08:42:38;;;;;;;52.60;24.80;;;;;;;;;;6231375;28;20025;-88
2021/12/06 08:45:38;;;;;;;52.17;26.33;;;;;;;;;;6245215;28;20079;-88
2021/12/06 08:48:39;;;;;;;53.72;25.88;;;;;;;;;;6244669;28;20060;-88
2021/12/06 08:51:42;;;;;;;56.15;25.27;;;;;;;;;;6239353;28;20033;-88
2021/12/06 08:54:42;;;;;;;50.42;25.00;;;;;;;;;;6232874;28;20022;-88
2021/12/06 08:57:42;;;;;;;59.55;23.65;;;;;;;;;;6239183;28;20611;-88
2021/12/06 09:00:43;;;;;;;52.75;25.90;;;;;;;;;;6243937;28;20017;-88
2021/12/06 09:03:43;;;;;;;50.92;23.80;;;;;;;;;;6234045;28;20021;-88
2021/12/06 09:06:46;;;;;;;66.55;30.88;;;;;;;;;;6227926;28;20101;-88
2021/12/06 09:09:49;;;;;;;73.95;34.72;;;;;;;;;;6236187;28;20033;-88
2021/12/06 09:12:49;;;;;;;64.20;29.63;;;;;;;;;;6241772;28;20070;-88
2021/12/06 09:15:51;;;;;;;101.15;44.10;;;;;;;;;;6233528;28;20474;-88
2021/12/06 09:18:53;;;;;;;;;;;;;;;;;;6231331;28;20018;-88
2021/12/06 09:21:53;;;;;;;59.55;27.88;;;;;;;;;;6241579;28;19919;-88
2021/12/06 09:24:53;;;;;;;69.53;35.92;;;;;;;;;;6232127;28;20006;-88
2021/12/06 09:27:54;;;;;;;62.65;29.35;;;;;;;;;;6248116;28;20014;-88
2021/12/06 09:30:54;;;;;;;48.65;25.48;;;;;;;;;;6232797;28;20093;-88
2021/12/06 09:33:55;;;;;;;62.28;26.02;;;;;;;;;;6230994;28;20048;-88
2021/12/06 09:36:55;;;;;;;44.42;22.65;;;;;;;;;;6228223;28;20026;-88
2021/12/06 09:39:57;;;;;;;46.15;23.75;;;;;;;;;;6233805;28;20029;-88
2021/12/06 09:42:58;;;;;;;44.60;22.08;;;;;;;;;;6232881;28;20021;-88
2021/12/06 09:45:58;;;;;;;47.03;22.60;;;;;;;;;;6232806;28;20044;-88
2021/12/06 09:48:59;;;;;;;44.40;21.38;;;;;;;;;;6223992;28;20034;-88
2021/12/06 09:52:00;;;;;;;42.05;23.58;;;;;;;;;;6241332;28;20032;-88
2021/12/06 09:55:01;;;;;;;67.20;31.33;;;;;;;;;;6228370;28;20104;-88
2021/12/06 09:58:02;;;;;;;67.07;32.45;;;;;;;;;;6228294;28;20041;-88
2021/12/06 10:01:19;;;;;;;58.15;24.65;;;;;;;;;;6234783;28;20025;-88
2021/12/06 10:04:20;;;;;;;52.92;25.85;;;;;;;;;;6237150;28;20621;-88
2021/12/06 10:07:22;;;;;;;53.15;23.65;;;;;;;;;;6226892;28;20021;-88
2021/12/06 10:10:23;;;;;;;60.05;27.60;;;;;;;;;;6232486;28;20025;-88
2021/12/06 10:13:24;;;;;;;64.60;34.70;;;;;;;;;;6228346;28;20101;-88
2021/12/06 10:16:24;;;;;;;58.47;29.77;;;;;;;;;;6234745;28;20404;-88
2021/12/06 10:19:25;;;;;;;44.83;22.48;;;;;;;;;;6239801;28;20049;-88
2021/12/06 10:22:27;;;;;;;52.22;27.35;;;;;;;;;;6234352;28;20014;-89
2021/12/06 10:25:35;;;;;;;48.92;24.48;;;;;;;;;;6241180;28;20014;-88
2021/12/06 10:28:38;;;;;;;47.20;23.05;;;;;;;;;;6255672;28;20470;-88
2021/12/06 10:31:40;;;;;;;53.58;27.73;;;;;;;;;;6240422;28;20018;-88
2021/12/06 10:34:46;;;;;;;49.65;24.23;;;;;;;;;;6243107;28;20044;-89
2021/12/06 10:37:52;;;;;;;55.58;24.98;;;;;;;;;;6239634;28;20048;-88
2021/12/06 10:40:57;;;;;;;50.90;27.58;;;;;;;;;;6241480;28;20470;-88
2021/12/06 10:43:59;;;;;;;57.60;27.88;;;;;;;;;;6240030;28;20010;-88
2021/12/06 10:47:00;;;;;;;52.15;24.23;;;;;;;;;;6240754;28;20108;-89
2021/12/06 10:50:15;;;;;;;58.17;31.08;;;;;;;;;;6230992;28;20048;-89
2021/12/06 10:53:15;;;;;;;69.15;33.85;;;;;;;;;;6239628;28;20036;-88
2021/12/06 10:56:19;;;;;;;66.63;31.33;;;;;;;;;;6244331;28;20374;-88
2021/12/06 10:59:19;;;;;;;48.10;27.25;;;;;;;;;;6243615;28;20025;-88
2021/12/06 11:02:19;;;;;;;47.40;25.85;;;;;;;;;;6242749;28;20018;-89
2021/12/06 11:05:28;;;;;;;41.60;21.85;;;;;;;;;;6243301;28;20021;-88
2021/12/06 11:08:29;;;;;;;47.92;22.90;;;;;;;;;;6239525;28;20018;-89
2021/12/06 11:11:37;;;;;;;45.33;24.33;;;;;;;;;;6235601;28;20025;-89
2021/12/06 11:14:40;;;;;;;49.55;24.42;;;;;;;;;;6231092;28;20112;-88
2021/12/06 11:17:40;;;;;;;42.13;22.70;;;;;;;;;;6244587;28;20022;-89
2021/12/06 11:20:48;;;;;;;55.63;26.60;;;;;;;;;;6232473;28;20021;-89
2021/12/06 11:23:59;;;;;;;53.28;26.17;;;;;;;;;;6240386;28;20470;-89
2021/12/06 11:27:04;;;;;;;53.43;27.30;;;;;;;;;;6228718;28;20421;-89
2021/12/06 11:30:07;;;;;;;50.08;25.33;;;;;;;;;;6237587;28;20548;-89
2021/12/06 11:33:24;;;;;;;47.70;23.15;;;;;;;;;;6234759;28;20108;-89
2021/12/06 11:36:30;;;;;;;41.80;21.92;;;;;;;;;;6238196;28;20025;-89
2021/12/06 11:39:30;;;;;;;43.78;23.13;;;;;;;;;;6234217;28;20036;-90
2021/12/06 11:42:31;;;;;;;40.85;23.90;;;;;;;;;;6237946;28;20018;-89
2021/12/06 11:45:31;;;;;;;40.70;23.77;;;;;;;;;;6239362;28;20657;-89
2021/12/06 11:48:33;;;;;;;41.78;20.92;;;;;;;;;;6253908;28;20014;-89
2021/12/06 11:51:34;;;;;;;40.30;19.25;;;;;;;;;;6240327;28;20120;-89
2021/12/06 11:54:39;;;;;;;39.17;22.75;;;;;;;;;;6233431;28;20026;-89
2021/12/06 11:57:41;;;;;;;36.90;19.88;;;;;;;;;;6235821;28;20025;-89
2021/12/06 12:00:41;;;;;;;43.05;21.83;;;;;;;;;;6260228;28;20025;-89
2021/12/06 12:03:43;;;;;;;34.47;19.08;;;;;;;;;;6233027;28;20017;-89
2021/12/06 12:06:48;;;;;;;36.83;18.65;;;;;;;;;;6239174;28;20014;-89
2021/12/06 12:09:48;;;;;;;41.25;18.67;;;;;;;;;;6230630;28;20018;-89
2021/12/06 12:12:55;;;;;;;31.48;16.33;;;;;;;;;;6231678;28;20034;-89
2021/12/06 12:15:57;;;;;;;39.03;19.80;;;;;;;;;;6234099;28;20087;-89
2021/12/06 12:18:58;;;;;;;36.10;20.38;;;;;;;;;;6242808;28;20470;-89
2021/12/06 12:21:58;;;;;;;32.83;16.88;;;;;;;;;;6233115;28;20018;-89
2021/12/06 12:25:06;;;;;;;46.55;23.90;;;;;;;;;;6238248;28;20379;-89
2021/12/06 12:28:19;;;;;;;57.13;30.58;;;;;;;;;;6236144;28;20396;-89
2021/12/06 12:31:22;;;;;;;27.85;14.85;;;;;;;;;;6241197;28;20018;-89
2021/12/06 12:34:24;;;;;;;56.55;29.25;;;;;;;;;;6233686;28;20117;-89
2021/12/06 12:37:24;;;;;;;;;;;;;;;;;;6230230;28;20013;-89
2021/12/06 12:40:27;;;;;;;35.58;19.58;;;;;;;;;;6229696;28;19919;-89
2021/12/06 12:43:38;;;;;;;34.30;19.88;;;;;;;;;;6234270;28;20031;-88
2021/12/06 12:46:41;;;;;;;36.10;20.10;;;;;;;;;;6228556;28;20057;-89
2021/12/06 12:49:41;;;;;;;;;;;;;;;;;;6241331;28;20138;-89
2021/12/06 12:52:44;;;;;;;42.20;19.95;;;;;;;;;;6240263;28;19913;-88
2021/12/06 12:55:48;;;;;;;47.60;26.98;;;;;;;;;;6235636;28;20086;-88
2021/12/06 12:58:51;;;;;;;46.53;19.92;;;;;;;;;;6231241;28;20072;-88
2021/12/06 13:02:10;;;;;;;31.13;18.73;;;;;;;;;;6231095;28;20493;-88
2021/12/06 13:05:19;;;;;;;30.75;17.52;;;;;;;;;;6233275;28;20409;-89
2021/12/06 13:08:33;;;;;;;34.22;19.67;;;;;;;;;;6232916;28;20025;-89
2021/12/06 13:11:39;;;;;;;33.65;17.60;;;;;;;;;;6231782;28;20079;-89
2021/12/06 13:14:45;;;;;;;32.13;15.90;;;;;;;;;;6237847;28;20031;-89
2021/12/06 13:17:49;;;;;;;33.13;16.98;;;;;;;;;;6246325;28;20401;-89
2021/12/06 13:20:49;;;;;;;37.33;20.80;;;;;;;;;;6243510;28;20102;-88
2021/12/06 13:24:02;;;;;;;34.05;20.05;;;;;;;;;;6239879;28;20025;-88
2021/12/06 13:27:07;;;;;;;34.30;17.23;;;;;;;;;;6260084;28;20023;-89
2021/12/06 13:30:24;;;;;;;45.85;23.77;;;;;;;;;;6237974;28;20029;-88
2021/12/06 13:33:34;;;;;;;27.92;15.70;;;;;;;;;;6235956;28;20053;-88
2021/12/06 13:36:42;;;;;;;31.95;16.55;;;;;;;;;;6234902;28;20010;-88
2021/12/06 13:39:43;;;;;;;28.17;17.48;;;;;;;;;;6239055;28;20029;-88
2021/12/06 13:42:43;;;;;;;35.47;20.92;;;;;;;;;;6243370;28;20021;-88
2021/12/06 13:45:48;;;;;;;32.70;16.08;;;;;;;;;;6244148;28;20021;-88
2021/12/06 13:48:50;;;;;;;28.00;16.17;;;;;;;;;;6244944;28;20029;-89
2021/12/06 13:52:02;;;;;;;26.52;14.05;;;;;;;;;;6238277;28;20034;-88
2021/12/06 13:55:16;;;;;;;36.90;17.20;;;;;;;;;;6237611;28;20014;-88
2021/12/06 13:58:17;;;;;;;30.08;15.75;;;;;;;;;;6238585;28;20021;-89
2021/12/06 14:01:20;;;;;;;25.40;15.75;;;;;;;;;;6257172;28;20029;-88
2021/12/06 14:04:21;;;;;;;26.20;14.85;;;;;;;;;;6236882;28;20049;-88
2021/12/06 14:07:23;;;;;;;29.98;16.00;;;;;;;;;;6243320;28;20083;-88
2021/12/06 14:10:25;;;;;;;29.73;16.90;;;;;;;;;;6243424;28;20434;-88
2021/12/06 14:13:25;;;;;;;38.05;16.98;;;;;;;;;;6236839;28;20046;-88
2021/12/06 14:16:29;;;;;;;30.23;16.70;;;;;;;;;;6238929;28;20064;-88
2021/12/06 14:19:30;;;;;;;28.73;14.90;;;;;;;;;;6240376;28;20863;-88
2021/12/06 14:22:31;;;;;;;29.13;16.08;;;;;;;;;;6239259;28;20026;-88
2021/12/06 14:25:34;;;;;;;30.48;15.73;;;;;;;;;;6244120;28;20040;-88
2021/12/06 14:28:36;;;;;;;50.53;23.98;;;;;;;;;;6241578;28;20357;-88
2021/12/06 14:31:38;;;;;;;40.80;22.35;;;;;;;;;;6230688;28;20029;-88
2021/12/06 14:34:40;;;;;;;;;;;;;;;;;;6229075;28;20052;-88
2021/12/06 14:37:40;;;;;;;38.17;19.05;;;;;;;;;;6232909;28;19916;-88
2021/12/06 14:40:44;;;;;;;33.95;18.95;;;;;;;;;;6239043;28;20048;-88
2021/12/06 14:43:44;;;;;;;38.38;20.77;;;;;;;;;;6236690;28;20565;-88
2021/12/06 14:46:45;;;;;;;37.00;18.10;;;;;;;;;;6242627;28;20045;-88
2021/12/06 14:49:46;;;;;;;36.22;17.20;;;;;;;;;;6237175;28;20038;-87
2021/12/06 14:52:48;;;;;;;41.13;22.70;;;;;;;;;;6234897;28;20028;-88
2021/12/06 14:55:58;;;;;;;40.17;20.63;;;;;;;;;;6241936;28;20075;-87
2021/12/06 14:59:00;;;;;;;38.05;18.20;;;;;;;;;;6232114;28;20044;-87
2021/12/06 15:02:01;;;;;;;30.20;15.77;;;;;;;;;;6235684;28;20606;-88
2021/12/06 15:05:04;;;;;;;34.03;17.92;;;;;;;;;;6251475;28;20026;-87
2021/12/06 15:08:10;;;;;;;29.23;14.55;;;;;;;;;;6238102;28;20040;-87
2021/12/06 15:11:12;;;;;;;30.05;14.93;;;;;;;;;;6226427;28;20029;-87
2021/12/06 15:14:16;;;;;;;39.13;19.88;;;;;;;;;;6238312;28;20021;-87
2021/12/06 15:17:17;;;;;;;46.00;23.60;;;;;;;;;;6232792;28;20029;-87
2021/12/06 15:20:17;;;;;;;39.42;22.48;;;;;;;;;;6230757;28;20034;-87
2021/12/06 15:23:22;;;;;;;52.47;27.85;;;;;;;;;;6226913;28;20033;-87
2021/12/06 15:26:28;;;;;;;55.15;32.28;;;;;;;;;;6221983;28;20030;-87
2021/12/06 15:29:35;;;;;;;68.75;34.45;;;;;;;;;;6237362;28;20455;-87
2021/12/06 15:32:36;;;;;;;148.77;68.50;;;;;;;;;;6227665;28;20060;-87
2021/12/06 15:35:47;;;;;;;81.18;40.75;;;;;;;;;;6229895;28;20022;-87
2021/12/06 15:38:49;;;;;;;86.67;49.30;;;;;;;;;;6231849;28;20104;-87
2021/12/06 15:42:12;;;;;;;57.55;33.78;;;;;;;;;;6238928;28;20093;-87
2021/12/06 15:45:13;;;;;;;53.22;25.50;;;;;;;;;;6237319;28;20033;-87
2021/12/06 15:48:13;;;;;;;67.63;34.85;;;;;;;;;;6233673;28;20017;-87
2021/12/06 15:51:16;;;;;;;52.97;29.15;;;;;;;;;;6229672;28;20053;-87
2021/12/06 15:54:18;;;;;;;33.67;19.58;;;;;;;;;;6234569;28;20091;-87
2021/12/06 15:57:22;;;;;;;37.22;21.92;;;;;;;;;;6228622;28;20032;-87
2021/12/06 16:00:24;;;;;;;36.72;19.02;;;;;;;;;;6227893;28;20030;-87
2021/12/06 16:03:25;;;;;;;;;;;;;;;;;;6230632;28;20026;-87
2021/12/06 16:06:25;;;;;;;33.88;17.90;;;;;;;;;;6228207;28;19912;-88
2021/12/06 16:09:26;;;;;;;49.97;27.00;;;;;;;;;;6234533;28;20017;-88
2021/12/06 16:12:26;;;;;;;48.90;22.95;;;;;;;;;;6224956;28;20033;-87
2021/12/06 16:15:30;;;;;;;39.47;21.35;;;;;;;;;;6228797;28;20034;-87
2021/12/06 16:18:31;;;;;;;41.30;18.55;;;;;;;;;;6223794;28;20121;-87
2021/12/06 16:21:34;;;;;;;31.23;15.80;;;;;;;;;;6225158;28;20017;-87
2021/12/06 16:24:35;;;;;;;31.02;17.40;;;;;;;;;;6225787;28;20508;-88
2021/12/06 16:27:36;;;;;;;40.83;17.42;;;;;;;;;;6228575;28;20480;-87
2021/12/06 16:30:36;;;;;;;32.45;19.42;;;;;;;;;;6229212;28;20052;-87
2021/12/06 16:33:44;;;;;;;36.35;20.23;;;;;;;;;;6226444;28;20052;-86
2021/12/06 16:36:47;;;;;;;41.15;23.27;;;;;;;;;;6228302;28;20477;-87
2021/12/06 16:39:49;;;;;;;49.63;24.10;;;;;;;;;;6235390;28;20516;-87
2021/12/06 16:42:57;;;;;;;48.08;23.38;;;;;;;;;;6236572;28;20029;-87
2021/12/06 16:45:59;;;;;;;36.58;19.02;;;;;;;;;;6234485;28;20419;-87
2021/12/06 16:49:00;;;;;;;36.28;20.55;;;;;;;;;;6232984;28;20545;-87
2021/12/06 16:52:27;;;;;;;44.63;22.23;;;;;;;;;;6243458;28;20021;-87
2021/12/06 16:55:32;;;;;;;37.28;21.13;;;;;;;;;;6231787;28;20223;-87
2021/12/06 16:58:33;;;;;;;50.63;24.27;;;;;;;;;;6240681;28;20025;-87
2021/12/06 17:01:33;;;;;;;41.40;21.95;;;;;;;;;;6234488;28;20025;-87
2021/12/06 17:04:45;;;;;;;32.42;17.20;;;;;;;;;;6230092;28;20025;-87
2021/12/06 17:07:47;;;;;;;39.88;20.95;;;;;;;;;;6230693;28;20014;-87
2021/12/06 17:11:08;;;;;;;40.08;19.75;;;;;;;;;;6237160;28;20032;-87
2021/12/06 17:14:11;;;;;;;36.22;17.48;;;;;;;;;;6239043;28;20029;-87
2021/12/06 17:17:11;;;;;;;35.63;19.83;;;;;;;;;;6231565;28;20034;-87
2021/12/06 17:20:23;;;;;;;39.38;17.73;;;;;;;;;;6244178;28;20044;-87
2021/12/06 17:23:24;;;;;;;;;;;;;;;;;;6240486;28;20026;-87
2021/12/06 17:26:25;;;;;;;34.05;19.00;;;;;;;;;;6229011;28;19910;-87
2021/12/06 17:29:27;;;;;;;32.90;18.95;;;;;;;;;;6240873;28;20032;-87
2021/12/06 17:32:27;;;;;;;31.07;16.17;;;;;;;;;;6249198;28;20366;-87
2021/12/06 17:35:28;;;;;;;33.42;18.85;;;;;;;;;;6237807;28;20287;-87
2021/12/06 17:38:31;;;;;;;37.60;19.98;;;;;;;;;;6240821;28;20064;-87
2021/12/06 17:41:31;;;;;;;45.10;22.60;;;;;;;;;;6235006;28;20079;-88
2021/12/06 17:44:31;;;;;;;39.40;20.85;;;;;;;;;;6234383;28;20022;-87
2021/12/06 17:47:32;;;;;;;46.78;23.77;;;;;;;;;;6235634;28;20035;-87
2021/12/06 17:50:33;;;;;;;48.65;25.30;;;;;;;;;;6239480;28;20049;-87